LYBE/BEG METAR and TAF weather

Enter ICAO airport designator
Station Type Date Time Source
LYBE METAR 2022/01/29 00:30 UTC NOAA

LYBE 290030Z 28009KT 9999 SCT045 02/M01 Q1026 NOSIG


Station Type Date Time Source
LYBE Decoded METAR 2022/01/29 00:30 UTC NOAA

Beograd / Surcin, Serbia and Montenegro (LYBE) 44-49N 020-17E 99M
Jan 28, 2022 - 07:30 PM EST / 2022.01.29 0030 UTC
Wind: from the W (280 degrees) at 10 MPH (9 KT):0
Visibility: greater than 7 mile(s):0
Sky conditions: partly cloudy
Temperature: 35 F (2 C)
Windchill: 26 F (-3 C):1
Dew Point: 30 F (-1 C)
Relative Humidity: 80%
Pressure (altimeter): 30.30 in. Hg (1026 hPa)
ob: LYBE 290030Z 28009KT 9999 SCT045 02/M01 Q1026 NOSIG
cycle: 0

Station Type Date Time Source
LYBE TAF 2022/01/28 18:22 UTC NOAA

TAF LYBE 281700Z 2818/2918 29009KT 9999 SCT040 TX04/2913Z TNM01/2906Z PROB40
TEMPO 2822/2902 5000 -SN BKN015 BKN030

Example: see airport list